Airfield :







YOU CAN JOIN US ON...

 
LOGIN :

Register | Disclaimer

   EN    FR    IT 

 









Legend :    VFR   Marginal VFR   IFR   Intensive IFR   Very Intensive IFR
Visi :
Ceiling :
>= 8 km
>= 3000ft
5 to 8 km
1000 to 3000 ft
1500m to 5 km
500 to 1000 ft
800 to 1500m
200 to 500 ft
< 800m
< 200 ft
Symbols :   Thunderstorms  Fog  Heavy snow  Heavy precipitations  Wind > 20 kt






- Airport Elevation : 335 ft
- IATA code : BTV


KBTV - Burlington International

CURRENT METAR :
  • 180054Z 13003KT 10SM CLR M02/M15 A3024 RMK AO2 SLP246 T10221150 $

EXPIRED METARs :
  • 172354Z 15006KT 10SM CLR M03/M15 A3025 RMK AO2 SLP252 4/004 T10281150 10022 21033 58009 $
  • 172254Z 11005KT 10SM CLR M03/M15 A3027 RMK AO2 SLP257 T10331150 $

TAF KBTV
Valid from the 18 at 00:00 until the 19 at 00:00 UTC


172335Z 1800/1824 14005KT P6SM SKC
FM180900 VRB04KT P6SM BKN030
FM182000 35007KT P6SM VCSH OVC025



MET'MAP, your aeronautical weather chart ! - Copyright ORBIFLY December 2007 - Disclaimer

ORBIFLY MET'MAP TEAM :

Programming & Development : Alexandra Zaïnal
Concept & Development : Baudouin d'Aumeries
Co-Development & Prog : Marc-Olivier Méhu
Technical & hardware support : Manuel Goepfert

Contact : metmap@orbifly.com




SOURCES & CREDITS :

   NOAA